createdAt,value
2022-08-31T00:00:58.313Z,16.10
2022-08-31T00:03:45.345Z,16.10
2022-08-31T00:06:14.892Z,16.00
2022-08-31T00:08:43.562Z,16.00
2022-08-31T00:11:14.364Z,16.00
2022-08-31T00:13:43.743Z,16.00
2022-08-31T00:16:13.875Z,16.10
2022-08-31T00:18:43.986Z,16.10
2022-08-31T00:21:12.197Z,16.10
2022-08-31T00:23:43.434Z,16.20
2022-08-31T00:26:11.795Z,16.10
2022-08-31T00:28:40.682Z,16.20
2022-08-31T00:31:09.467Z,16.20
2022-08-31T00:33:40.613Z,16.20
2022-08-31T00:36:14.277Z,16.20
2022-08-31T00:38:43.514Z,16.20
2022-08-31T00:41:12.993Z,16.20
2022-08-31T00:43:47.236Z,16.20
2022-08-31T00:46:20.196Z,16.20
2022-08-31T00:48:56.782Z,16.10
2022-08-31T00:51:28.970Z,16.10
2022-08-31T00:53:58.276Z,16.00
2022-08-31T00:56:28.098Z,16.00
2022-08-31T00:58:59.992Z,16.00
2022-08-31T01:01:30.903Z,16.00
2022-08-31T01:04:00.455Z,16.00
2022-08-31T01:06:30.524Z,15.90
2022-08-31T01:09:03.877Z,15.90
2022-08-31T01:11:33.023Z,15.80
2022-08-31T01:14:02.024Z,15.80
2022-08-31T01:16:37.854Z,15.80
2022-08-31T01:19:13.369Z,15.70
2022-08-31T01:21:50.209Z,15.60
2022-08-31T01:24:22.484Z,15.60
2022-08-31T01:26:55.718Z,15.60
2022-08-31T01:29:24.228Z,15.60
2022-08-31T01:31:52.955Z,15.60
2022-08-31T01:34:21.764Z,15.60
2022-08-31T01:36:52.964Z,15.40
2022-08-31T01:39:25.316Z,15.40
2022-08-31T01:41:54.071Z,15.40
2022-08-31T01:44:25.097Z,15.30
2022-08-31T01:46:53.954Z,15.30
2022-08-31T01:49:26.272Z,15.30
2022-08-31T01:51:55.061Z,15.30
2022-08-31T01:54:27.744Z,15.30
2022-08-31T01:56:56.616Z,15.30
2022-08-31T01:59:25.476Z,15.40
2022-08-31T02:01:56.434Z,15.40
2022-08-31T02:04:28.999Z,15.40
2022-08-31T02:07:00.205Z,15.40
2022-08-31T02:09:30.915Z,15.40
2022-08-31T02:12:00.414Z,15.40
2022-08-31T02:14:28.649Z,15.40
2022-08-31T02:16:58.189Z,15.40
2022-08-31T02:19:27.550Z,15.40
2022-08-31T02:21:55.780Z,15.40
2022-08-31T02:24:24.431Z,15.40
2022-08-31T02:26:54.206Z,15.40
2022-08-31T02:29:22.636Z,15.30
2022-08-31T02:31:52.064Z,15.30
2022-08-31T02:34:20.811Z,15.20
2022-08-31T02:36:49.631Z,15.20
2022-08-31T02:39:18.257Z,15.20
2022-08-31T02:41:47.247Z,15.20
2022-08-31T02:44:17.871Z,15.20
2022-08-31T02:46:46.584Z,15.20
2022-08-31T02:49:15.012Z,15.10
2022-08-31T02:51:44.255Z,15.10
2022-08-31T02:54:14.704Z,15.10
2022-08-31T02:56:43.444Z,15.10
2022-08-31T02:59:11.696Z,15.00
2022-08-31T03:01:42.263Z,15.00
2022-08-31T03:04:24.040Z,15.10
2022-08-31T03:06:56.896Z,15.10
2022-08-31T03:09:33.592Z,15.00
2022-08-31T03:12:10.081Z,15.00
2022-08-31T03:14:48.653Z,14.90
2022-08-31T03:17:18.689Z,14.90
2022-08-31T03:19:47.638Z,14.80
2022-08-31T03:22:16.257Z,14.80
2022-08-31T03:24:45.496Z,14.80
2022-08-31T03:27:14.365Z,14.80
2022-08-31T03:29:43.261Z,14.90
2022-08-31T03:32:16.456Z,14.80
2022-08-31T03:34:52.110Z,14.80
2022-08-31T03:37:21.623Z,14.80
2022-08-31T03:39:50.566Z,14.80
2022-08-31T03:42:20.810Z,14.80
2022-08-31T03:44:55.058Z,14.80
2022-08-31T03:47:25.052Z,14.80
2022-08-31T03:49:58.073Z,14.80
2022-08-31T03:52:27.244Z,14.80
2022-08-31T03:54:55.712Z,14.70
2022-08-31T03:57:24.297Z,14.60
2022-08-31T03:59:55.072Z,14.60
2022-08-31T04:02:34.117Z,14.60
2022-08-31T04:05:13.298Z,14.60
2022-08-31T04:07:43.247Z,14.60
2022-08-31T04:10:12.643Z,14.60
2022-08-31T04:12:43.430Z,14.60
2022-08-31T04:15:12.557Z,14.60
2022-08-31T04:17:41.237Z,14.60
2022-08-31T04:20:13.149Z,14.60
2022-08-31T04:22:44.860Z,14.70
2022-08-31T04:25:15.299Z,14.60
2022-08-31T04:27:47.986Z,14.60
2022-08-31T04:30:21.676Z,14.60
2022-08-31T04:32:52.572Z,14.50
2022-08-31T04:35:22.878Z,14.60
2022-08-31T04:37:51.781Z,14.70
2022-08-31T04:40:25.611Z,14.70
2022-08-31T04:42:54.915Z,14.70
2022-08-31T04:45:24.094Z,14.70
2022-08-31T04:47:52.490Z,14.70
2022-08-31T04:50:23.007Z,14.70
2022-08-31T04:53:01.120Z,14.70
2022-08-31T04:55:32.676Z,14.80
2022-08-31T04:58:02.961Z,14.60
2022-08-31T05:00:31.773Z,14.50
2022-08-31T05:03:00.399Z,14.60
2022-08-31T05:05:30.524Z,14.50
2022-08-31T05:07:59.470Z,14.50
2022-08-31T05:10:29.157Z,14.50
2022-08-31T05:12:57.880Z,14.40
2022-08-31T05:15:27.916Z,14.50
2022-08-31T05:17:56.412Z,14.40
2022-08-31T05:20:27.298Z,14.40
2022-08-31T05:22:57.149Z,14.30
2022-08-31T05:25:25.579Z,14.50
2022-08-31T05:27:55.452Z,14.40
2022-08-31T05:30:25.113Z,14.40
2022-08-31T05:32:53.731Z,14.40
2022-08-31T05:35:22.573Z,14.50
2022-08-31T05:37:53.328Z,14.50
2022-08-31T05:40:26.116Z,14.50
2022-08-31T05:42:56.456Z,14.50
2022-08-31T05:45:52.756Z,14.60
2022-08-31T05:48:30.108Z,14.50
2022-08-31T05:51:02.345Z,14.50
2022-08-31T05:53:30.908Z,14.60
2022-08-31T05:56:09.966Z,14.70
2022-08-31T05:58:39.518Z,14.70
2022-08-31T06:01:14.821Z,14.60
2022-08-31T06:03:43.855Z,14.80
2022-08-31T06:06:12.563Z,14.80
2022-08-31T06:08:42.318Z,14.80
2022-08-31T06:11:16.583Z,15.00
2022-08-31T06:13:45.077Z,15.10
2022-08-31T06:16:17.613Z,15.00
2022-08-31T06:18:50.862Z,15.10
2022-08-31T06:21:21.848Z,15.10
2022-08-31T06:23:52.398Z,15.20
2022-08-31T06:26:24.039Z,15.10
2022-08-31T06:28:55.053Z,15.10
2022-08-31T06:31:27.899Z,15.10
2022-08-31T06:33:57.391Z,15.30
2022-08-31T06:36:28.721Z,15.40
2022-08-31T06:39:00.362Z,15.30
2022-08-31T06:41:36.445Z,15.30
2022-08-31T06:44:07.920Z,15.50
2022-08-31T06:46:41.239Z,15.60
2022-08-31T06:49:10.292Z,15.80
2022-08-31T06:51:39.089Z,16.10
2022-08-31T06:54:28.131Z,16.10
2022-08-31T06:57:02.888Z,16.10
2022-08-31T06:59:31.328Z,15.90
2022-08-31T07:02:01.103Z,15.90
2022-08-31T07:04:33.562Z,16.10
2022-08-31T07:07:05.083Z,16.00
2022-08-31T07:09:35.651Z,16.10
2022-08-31T07:12:20.833Z,16.20
2022-08-31T07:14:56.408Z,16.40
2022-08-31T07:17:26.074Z,16.60
2022-08-31T07:19:54.692Z,16.60
2022-08-31T07:22:23.683Z,16.50
2022-08-31T07:24:52.325Z,16.70
2022-08-31T07:27:24.771Z,16.70
2022-08-31T07:29:54.916Z,16.60
2022-08-31T07:32:26.869Z,16.60
2022-08-31T07:34:59.737Z,16.60
2022-08-31T07:37:57.806Z,16.40
2022-08-31T07:40:43.453Z,16.40
2022-08-31T07:43:16.210Z,16.40
2022-08-31T07:45:48.797Z,16.30
2022-08-31T07:48:22.616Z,16.30
2022-08-31T07:50:56.019Z,16.20
2022-08-31T07:53:26.304Z,16.30
2022-08-31T07:55:58.249Z,16.30
2022-08-31T07:58:35.384Z,16.40
2022-08-31T08:01:05.976Z,16.50
2022-08-31T08:03:36.700Z,16.70
2022-08-31T08:06:13.026Z,16.70
2022-08-31T08:08:43.887Z,16.80
2022-08-31T08:11:17.424Z,16.80
2022-08-31T08:13:47.351Z,16.80
2022-08-31T08:16:18.345Z,17.00
2022-08-31T08:18:49.183Z,17.20
2022-08-31T08:21:17.751Z,17.30
2022-08-31T08:23:51.194Z,17.40
2022-08-31T08:26:22.329Z,17.70
2022-08-31T08:28:54.942Z,17.50
2022-08-31T08:31:28.871Z,17.60
2022-08-31T08:33:57.445Z,17.70
2022-08-31T08:36:25.989Z,17.80
2022-08-31T08:38:57.475Z,17.90
2022-08-31T08:41:28.261Z,18.30
2022-08-31T08:44:00.874Z,18.10
2022-08-31T08:47:37.870Z,18.20
2022-08-31T08:49:31.744Z,18.20
2022-08-31T08:52:05.398Z,18.30
2022-08-31T08:54:38.797Z,18.40
2022-08-31T08:57:12.832Z,18.40
2022-08-31T08:59:46.888Z,18.40
2022-08-31T09:02:20.300Z,18.50
2022-08-31T09:05:17.780Z,18.70
2022-08-31T09:08:05.117Z,18.80
2022-08-31T09:10:39.014Z,18.50
2022-08-31T09:13:19.493Z,18.70
2022-08-31T09:16:04.543Z,19.10
2022-08-31T09:18:48.837Z,19.10
2022-08-31T09:21:25.324Z,19.10
2022-08-31T09:24:01.619Z,19.00
2022-08-31T09:26:39.723Z,19.10
2022-08-31T09:29:14.116Z,19.50
2022-08-31T09:31:48.003Z,19.50
2022-08-31T09:34:29.576Z,19.60
2022-08-31T09:37:16.078Z,19.70
2022-08-31T09:39:47.621Z,19.90
2022-08-31T09:42:29.046Z,19.80
2022-08-31T09:45:00.098Z,19.90
2022-08-31T09:47:51.110Z,20.00
2022-08-31T09:50:29.556Z,20.10
2022-08-31T09:53:35.393Z,20.30
2022-08-31T09:56:16.991Z,20.50
2022-08-31T09:58:52.849Z,20.70
2022-08-31T10:01:29.953Z,20.90
2022-08-31T10:04:21.712Z,20.50
2022-08-31T10:06:56.436Z,20.60
2022-08-31T10:09:35.584Z,20.60
2022-08-31T10:12:08.866Z,20.40
2022-08-31T10:14:44.605Z,20.60
2022-08-31T10:17:17.442Z,20.70
2022-08-31T10:20:01.367Z,20.30
2022-08-31T10:22:37.163Z,20.30
2022-08-31T10:25:15.823Z,20.40
2022-08-31T10:27:50.979Z,20.40
2022-08-31T10:30:44.386Z,20.50
2022-08-31T10:33:20.703Z,20.70
2022-08-31T10:35:58.287Z,21.00
2022-08-31T10:38:31.827Z,21.20
2022-08-31T10:41:14.301Z,21.40
2022-08-31T10:43:49.231Z,21.60
2022-08-31T10:46:19.029Z,21.70
2022-08-31T10:48:59.562Z,21.90
2022-08-31T10:51:41.799Z,22.00
2022-08-31T10:54:28.950Z,21.60
2022-08-31T10:57:09.773Z,21.10
2022-08-31T10:59:57.871Z,20.90
2022-08-31T11:02:45.468Z,21.10
2022-08-31T11:05:32.658Z,20.90
2022-08-31T11:08:23.444Z,20.80
2022-08-31T11:10:54.420Z,20.90
2022-08-31T11:13:48.670Z,20.60
2022-08-31T11:16:36.848Z,20.50
2022-08-31T11:19:29.655Z,20.40
2022-08-31T11:22:28.685Z,20.00
2022-08-31T11:25:31.676Z,20.20
2022-08-31T11:28:08.214Z,20.00
2022-08-31T11:30:42.224Z,19.80
2022-08-31T11:33:20.430Z,20.00
2022-08-31T11:36:05.395Z,20.20
2022-08-31T11:38:52.274Z,20.30
2022-08-31T11:41:46.678Z,20.10
2022-08-31T11:45:01.014Z,20.10
2022-08-31T11:47:41.518Z,20.10
2022-08-31T11:50:14.084Z,20.20
2022-08-31T11:52:48.275Z,20.10
2022-08-31T11:55:22.078Z,20.00
2022-08-31T11:58:33.761Z,20.20
2022-08-31T12:01:33.808Z,20.20
2022-08-31T12:04:04.478Z,20.20
2022-08-31T12:07:09.280Z,20.30
2022-08-31T12:10:06.540Z,20.40
2022-08-31T12:12:56.804Z,20.40
2022-08-31T12:15:36.187Z,20.50
2022-08-31T12:18:22.089Z,20.40
2022-08-31T12:21:16.951Z,20.40
2022-08-31T12:23:57.100Z,20.50
2022-08-31T12:26:51.966Z,20.50
2022-08-31T12:29:25.827Z,20.50
2022-08-31T12:32:19.212Z,20.50
2022-08-31T12:34:51.961Z,20.70
2022-08-31T12:37:38.687Z,20.80
2022-08-31T12:40:15.072Z,21.00
2022-08-31T12:42:53.929Z,21.00
2022-08-31T12:45:32.590Z,20.90
2022-08-31T12:48:12.304Z,20.90
2022-08-31T12:50:45.945Z,21.10
2022-08-31T12:53:42.189Z,21.30
2022-08-31T12:56:15.968Z,21.80
2022-08-31T12:59:03.695Z,21.80
2022-08-31T13:01:32.368Z,21.60
2022-08-31T13:04:04.435Z,22.00
2022-08-31T13:06:35.960Z,22.10
2022-08-31T13:09:16.967Z,22.30
2022-08-31T13:11:53.884Z,22.10
2022-08-31T13:14:29.108Z,22.40
2022-08-31T13:17:09.144Z,22.00
2022-08-31T13:19:42.322Z,22.20
2022-08-31T13:22:21.963Z,22.40
2022-08-31T13:25:01.153Z,22.20
2022-08-31T13:27:32.982Z,22.30
2022-08-31T13:30:19.236Z,22.10
2022-08-31T13:32:56.596Z,22.10
2022-08-31T13:35:37.225Z,22.10
2022-08-31T13:38:09.129Z,21.80
2022-08-31T13:40:41.938Z,21.60
2022-08-31T13:43:11.989Z,21.50
2022-08-31T13:45:53.012Z,21.20
2022-08-31T13:48:55.072Z,21.10
2022-08-31T13:51:32.731Z,21.10
2022-08-31T13:58:44.759Z,21.00
2022-08-31T14:01:40.304Z,20.80
2022-08-31T14:05:01.661Z,20.70
2022-08-31T14:08:09.346Z,20.50
2022-08-31T14:10:41.998Z,20.30
2022-08-31T14:13:20.896Z,20.40
2022-08-31T14:15:56.573Z,20.60
2022-08-31T14:18:28.723Z,20.40
2022-08-31T14:21:23.478Z,20.40
2022-08-31T14:24:01.269Z,20.50
2022-08-31T14:26:33.178Z,20.50
2022-08-31T14:29:05.374Z,20.50
2022-08-31T14:31:37.573Z,20.50
2022-08-31T14:34:24.620Z,20.50
2022-08-31T14:36:57.471Z,20.30
2022-08-31T14:39:31.378Z,20.40
2022-08-31T14:42:06.059Z,20.50
2022-08-31T14:44:38.943Z,20.60
2022-08-31T14:47:09.688Z,20.80
2022-08-31T14:49:39.204Z,21.00
2022-08-31T14:52:11.084Z,21.00
2022-08-31T14:54:42.658Z,21.10
2022-08-31T14:57:17.209Z,21.20
2022-08-31T14:59:52.088Z,21.10
2022-08-31T15:02:21.186Z,21.20
2022-08-31T15:04:51.096Z,21.30
2022-08-31T15:07:20.847Z,21.40
2022-08-31T15:09:50.657Z,21.50
2022-08-31T15:12:19.523Z,21.60
2022-08-31T15:14:48.245Z,21.60
2022-08-31T15:17:20.288Z,21.50
2022-08-31T15:19:53.591Z,21.50
2022-08-31T15:22:22.152Z,21.30
2022-08-31T15:24:54.794Z,21.10
2022-08-31T15:27:28.572Z,21.30
2022-08-31T15:30:07.678Z,21.30
2022-08-31T15:32:39.784Z,21.20
2022-08-31T15:35:09.244Z,21.10
2022-08-31T15:37:40.043Z,21.00
2022-08-31T15:40:11.630Z,21.00
2022-08-31T15:42:43.549Z,20.90
2022-08-31T15:45:12.177Z,20.90
2022-08-31T15:47:59.767Z,20.90
2022-08-31T15:50:32.557Z,20.80
2022-08-31T15:53:08.891Z,20.70
2022-08-31T15:55:40.462Z,20.60
2022-08-31T15:58:10.326Z,20.40
2022-08-31T16:00:41.592Z,20.50
2022-08-31T16:03:10.062Z,20.40
2022-08-31T16:05:40.028Z,20.40
2022-08-31T16:08:10.956Z,20.40
2022-08-31T16:10:43.691Z,20.60
2022-08-31T16:13:12.840Z,20.60
2022-08-31T16:15:41.470Z,20.80
2022-08-31T16:18:09.821Z,20.80
2022-08-31T16:20:40.970Z,20.90
2022-08-31T16:23:09.895Z,20.80
2022-08-31T16:25:48.626Z,20.90
2022-08-31T16:28:21.153Z,20.70
2022-08-31T16:30:51.829Z,20.70
2022-08-31T16:33:20.900Z,20.70
2022-08-31T16:35:49.970Z,20.50
2022-08-31T16:38:18.607Z,20.50
2022-08-31T16:40:47.235Z,20.50
2022-08-31T16:43:15.965Z,20.40
2022-08-31T16:45:46.412Z,20.40
2022-08-31T16:48:32.877Z,20.20
2022-08-31T16:51:02.263Z,20.10
2022-08-31T16:53:33.300Z,20.00
2022-08-31T16:56:04.448Z,20.00
2022-08-31T16:58:51.000Z,20.00
2022-08-31T17:01:24.055Z,19.90
2022-08-31T17:03:56.783Z,19.80
2022-08-31T17:06:32.186Z,19.80
2022-08-31T17:09:03.541Z,19.80
2022-08-31T17:11:35.975Z,19.80
2022-08-31T17:14:08.068Z,19.80
2022-08-31T17:16:40.458Z,19.80
2022-08-31T17:19:12.847Z,19.80
2022-08-31T17:21:50.565Z,19.90
2022-08-31T17:24:23.281Z,19.80
2022-08-31T17:26:52.667Z,19.90
2022-08-31T17:29:24.439Z,20.00
2022-08-31T17:31:56.896Z,20.00
2022-08-31T17:34:27.957Z,20.00
2022-08-31T17:36:59.536Z,20.10
2022-08-31T17:39:28.787Z,20.00
2022-08-31T17:41:58.047Z,20.00
2022-08-31T17:44:31.035Z,20.10
2022-08-31T17:47:04.743Z,20.00
2022-08-31T17:49:37.707Z,19.90
2022-08-31T17:52:09.777Z,19.80
2022-08-31T17:54:43.412Z,19.80
2022-08-31T17:57:13.585Z,19.70
2022-08-31T17:59:43.963Z,19.70
2022-08-31T18:02:18.158Z,19.70
2022-08-31T18:04:50.199Z,19.80
2022-08-31T18:07:18.794Z,19.70
2022-08-31T18:09:47.261Z,19.60
2022-08-31T18:12:16.946Z,19.60
2022-08-31T18:14:50.428Z,19.60
2022-08-31T18:17:22.405Z,19.60
2022-08-31T18:19:51.038Z,19.50
2022-08-31T18:22:20.062Z,19.50
2022-08-31T18:24:50.483Z,19.40
2022-08-31T18:27:18.900Z,19.40
2022-08-31T18:29:47.757Z,19.30
2022-08-31T18:32:15.950Z,19.30
2022-08-31T18:34:47.094Z,19.20
2022-08-31T18:37:22.121Z,19.20
2022-08-31T18:40:08.641Z,19.20
2022-08-31T18:42:56.903Z,19.20
2022-08-31T18:45:25.551Z,19.20
2022-08-31T18:50:49.222Z,19.10
2022-08-31T18:53:29.314Z,19.10
2022-08-31T18:56:00.135Z,19.10
2022-08-31T18:58:30.074Z,19.20
2022-08-31T19:00:59.683Z,19.20
2022-08-31T19:03:29.160Z,19.10
2022-08-31T19:05:59.293Z,19.00
2022-08-31T19:08:28.253Z,19.00
2022-08-31T19:10:58.964Z,19.00
2022-08-31T19:13:28.725Z,18.90
2022-08-31T19:16:01.202Z,18.80
2022-08-31T19:18:32.494Z,18.80
2022-08-31T19:21:14.289Z,18.80
2022-08-31T19:23:43.521Z,18.70
2022-08-31T19:26:12.130Z,18.80
2022-08-31T19:28:40.971Z,18.80
2022-08-31T19:31:11.775Z,18.70
2022-08-31T19:33:40.217Z,18.70
2022-08-31T19:36:11.528Z,18.60
2022-08-31T19:38:40.753Z,18.50
2022-08-31T19:41:16.567Z,18.60
2022-08-31T19:43:52.349Z,18.60
2022-08-31T19:46:27.398Z,18.60
2022-08-31T19:48:59.793Z,18.60
2022-08-31T19:51:32.169Z,18.60
2022-08-31T19:54:03.301Z,18.60
2022-08-31T19:56:31.867Z,18.60
2022-08-31T19:59:01.166Z,18.60
2022-08-31T20:01:33.881Z,18.50
2022-08-31T20:04:04.115Z,18.60
2022-08-31T20:06:34.064Z,18.60
2022-08-31T20:09:02.586Z,18.70
2022-08-31T20:11:32.474Z,18.40
2022-08-31T20:14:01.351Z,18.30
2022-08-31T20:16:37.232Z,18.30
2022-08-31T20:19:08.522Z,18.30
2022-08-31T20:21:41.488Z,18.20
2022-08-31T20:24:12.422Z,18.30
2022-08-31T20:26:51.826Z,18.20
2022-08-31T20:29:21.817Z,18.20
2022-08-31T20:31:55.308Z,18.20
2022-08-31T20:34:27.938Z,18.20
2022-08-31T20:37:01.280Z,18.10
2022-08-31T20:39:32.471Z,18.00
2022-08-31T20:42:03.271Z,17.80
2022-08-31T20:44:35.096Z,17.80
2022-08-31T20:47:23.332Z,17.80
2022-08-31T20:49:56.206Z,17.80
2022-08-31T20:52:29.184Z,17.70
2022-08-31T20:55:02.197Z,17.60
2022-08-31T20:57:33.132Z,17.60
2022-08-31T21:00:03.175Z,17.60
2022-08-31T21:02:33.906Z,17.40
2022-08-31T21:05:26.722Z,17.50
2022-08-31T21:07:53.301Z,17.40
2022-08-31T21:10:36.841Z,17.30
2022-08-31T21:13:11.764Z,17.30
2022-08-31T21:15:45.583Z,17.30
2022-08-31T21:18:17.373Z,17.20
2022-08-31T21:20:48.935Z,17.20
2022-08-31T21:23:18.989Z,17.20
2022-08-31T21:25:50.112Z,17.10
2022-08-31T21:28:18.980Z,17.10
2022-08-31T21:30:50.177Z,17.00
2022-08-31T21:33:19.336Z,17.10
2022-08-31T21:35:48.187Z,16.90
2022-08-31T21:38:18.209Z,16.90
2022-08-31T21:40:52.110Z,16.80
2022-08-31T21:43:20.802Z,16.80
2022-08-31T21:45:55.145Z,16.80
2022-08-31T21:48:25.863Z,16.80
2022-08-31T21:50:57.467Z,16.70
2022-08-31T21:53:27.383Z,16.70
2022-08-31T21:55:57.196Z,16.60
2022-08-31T21:58:26.972Z,16.70
2022-08-31T22:00:56.364Z,16.70
2022-08-31T22:03:24.907Z,16.60
2022-08-31T22:05:54.369Z,16.60
2022-08-31T22:08:26.072Z,16.50
2022-08-31T22:10:55.548Z,16.50
2022-08-31T22:13:28.863Z,16.40
2022-08-31T22:16:00.222Z,16.30
2022-08-31T22:19:00.119Z,16.30
2022-08-31T22:21:23.953Z,16.30
2022-08-31T22:23:58.781Z,16.20
2022-08-31T22:26:33.393Z,16.10
2022-08-31T22:29:03.239Z,16.10
2022-08-31T22:31:33.279Z,16.00
2022-08-31T22:34:01.902Z,16.00
2022-08-31T22:36:32.662Z,15.90
2022-08-31T22:39:03.295Z,15.80
2022-08-31T22:41:32.960Z,15.80
2022-08-31T22:44:03.076Z,15.80
2022-08-31T22:46:33.997Z,15.80
2022-08-31T22:49:03.174Z,15.70
2022-08-31T22:51:31.820Z,15.70
2022-08-31T22:54:01.717Z,15.70
2022-08-31T22:56:33.121Z,15.70
2022-08-31T22:59:06.232Z,15.70
2022-08-31T23:01:37.653Z,15.70
2022-08-31T23:04:09.044Z,15.70
2022-08-31T23:06:39.450Z,15.50
2022-08-31T23:09:10.124Z,15.40
2022-08-31T23:11:40.767Z,15.30
2022-08-31T23:14:11.411Z,15.30
2022-08-31T23:16:43.751Z,15.20
2022-08-31T23:19:15.204Z,15.20
2022-08-31T23:21:52.998Z,15.20
2022-08-31T23:24:29.729Z,15.10
2022-08-31T23:27:04.618Z,15.20
2022-08-31T23:29:40.182Z,15.20
2022-08-31T23:32:11.369Z,15.20
2022-08-31T23:34:42.775Z,15.20
2022-08-31T23:37:12.052Z,15.30
2022-08-31T23:39:43.557Z,15.00
2022-08-31T23:42:13.125Z,15.00
2022-08-31T23:44:44.942Z,15.20
2022-08-31T23:47:15.293Z,15.20
2022-08-31T23:49:51.187Z,15.20
2022-08-31T23:52:25.477Z,15.10
2022-08-31T23:55:14.147Z,14.80
2022-08-31T23:57:44.559Z,14.70
